Eglin Air Force Base, FL

8:57 PM CST on December 22, 2014 (GMT -0600)
Eglin Air Force Base | Change Station
CLOSE
Current Station
Airport
Location: Valparaiso,
Elevation: 85 ft
Nearby Weather Stations

Elev 85 ft 30.48 °N, 86.53 °W | Updated 10 minutes ago

Mostly Cloudy
Mostly Cloudy
64 °F
Feels Like 64 °F
N
0
Wind Variable Wind from North

Today
High -- | Low -- °F
--% Chance of Precip.
Yesterday
High -- | Low -- °F
Precip. -- in
6:39 AM 4:50 PM
New Moon, 2% visible
Pressure 29.82 in
Visibility 0.8 miles
Clouds Few 3000 ft
Scattered Clouds 7500 ft
Dew Point 63 °F
Humidity 94%
Rainfall 0.92 in
Snow Depth Not available.
UV 0 out of 12
Pollen 2.00 out of 12
Air Quality Not available.
Flu Activity Not available.
SPECI KVPS 230247Z 00000KT 3/4SM R19/5000FT BR FEW030 SCT075 18/17 A2982 RMK AO2A $

More Conditions Fewer Conditions

Pressure 29.82 in
Visibility 0.8 miles
Clouds Few 3000 ft
Scattered Clouds 7500 ft
Dew Point 63 °F
Humidity 94%
Rainfall 0.92 in
Snow Depth Not available.
UV 0 out of 12
Pollen 2.00 out of 12
Air Quality Not available.
Flu Activity Not available.
SPECI KVPS 230247Z 00000KT 3/4SM R19/5000FT BR FEW030 SCT075 18/17 A2982 RMK AO2A $

More Conditions Fewer Conditions

10-Day Weather Forecast

Almanac

Astronomy

Dec. 22, 2014 Rise Set
Actual Time
Civil Twilight
Nautical Twilight
Astronomical Twilight
Moon
Length of Visible Light
Length of Day
Tomorrow will be .
, % of the Moon is Illuminated

Today's Extremes

State Highs State Lows

Community

WunderPhotos

Upload Photos

1,779,762 photos uploaded!

WunderBlogs® & News

Nearby

Air Quality

  Air Quality AQ Index Pollutant
Not available.

Snow Depth

Station Depth Elevation

Earthquake Activity

City Distance Mag. Time & Date
Minimum magnitude displayed is 2.5.

Coastal Water Temperatures

Place Temperature

Nearby Weather Stations